Strona główna
METAR-TAF:

METAR-TAF

Lotnisko :

Port lotniczy Dakar

Dakar, Senegal

Szerokość geograficzna: 14-44N, Długość geograficzna: 017-30W, wysokość: 27 m

Aktualna obserwacja pogody

Raport powstał 32 minut temu, godzina 22:00 UTC
Wiatr 4 kt od północ
Temperatura 23°C
Wilgotność 73%
Ciśnienie 1015 hPa
Widzialność: 8000 m

METAR: GOOY 092200Z 36004KT 8000 NSC 23/18 Q1015

czas: 22:32 (22:32 UTC)

Prognoza

Raport powstał 5 godziny i 2 minut temu, godzina 17:30 UTC
Prognoza ważna od 09 godzina 18 UTC do 10 godzina 24 UTC
Wiatr 10 kt od północ
Widzialność: 8000 m

TAF: GOOY 091730Z 0918/1024 36010KT 8000 NSC

Obserwacja i prognoza pogody dla ponad 4000 lotnisk (raport METAR i TAF).

Dostępne stacje oznaczono żółtymi i czerwonymi punktami na mapie.

Najedź kursorem aby zobaczyć nazwę stacji.

Kliknij aby zobaczyć obserwacje i prognozy pogody.

Aby zmienić mapę: kliknij na zielony przycisk z czarnym krzyżykiem, aby powiększyć; na zielony przycisk z myślnikiem, aby pomniejszyć; na zielone strzałki, aby przejść do map sąsiednich.


METAR-TAF: